Time;durP1;ratioP1;P1;durP2;ratioP2;P2;SDS_P1;SDS_P2;PMS_P1;PMS_P2;Temp;Humidity;BMP_temperature;BMP_pressure;BME280_temperature;BME280_humidity;BME280_pressure;Samples;Min_cycle;Max_cycle;Signal;HPM_P1;HPM_P2
2021/12/04 00:01:22;;;;;;;1999.90;999.90;;;;;;;0.05;82.92;162412.88;5034438;28;20039;-66
2021/12/04 00:03:49;;;;;;;1999.90;999.90;;;;;;;0.23;82.58;162460.72;5042225;28;20049;-65
2021/12/04 00:06:23;;;;;;;1999.90;999.90;;;;;;;0.27;81.59;162471.66;5039541;28;20583;-65
2021/12/04 00:08:49;;;;;;;1999.90;999.90;;;;;;;0.15;82.83;162440.22;5032488;28;20056;-66
2021/12/04 00:11:17;;;;;;;1999.90;999.90;;;;;;;0.23;82.59;162460.72;5032462;28;20138;-66
2021/12/04 00:13:44;;;;;;;1999.90;999.90;;;;;;;0.26;82.37;162467.56;5035528;28;20533;-66
2021/12/04 00:16:12;;;;;;;1999.90;999.90;;;;;;;0.58;81.43;162552.34;5034233;28;20090;-66
2021/12/04 00:18:39;;;;;;;1999.90;999.90;;;;;;;0.49;81.96;162529.06;5031702;28;20434;-66
2021/12/04 00:21:05;;;;;;;1999.90;999.90;;;;;;;0.49;82.33;162530.47;5039168;28;20060;-66
2021/12/04 00:23:32;;;;;;;1999.90;999.90;;;;;;;0.44;82.37;162516.78;5036328;28;20081;-66
2021/12/04 00:25:59;;;;;;;1999.90;999.90;;;;;;;0.26;83.02;162468.91;5045594;28;20094;-66
2021/12/04 00:28:25;;;;;;;1999.90;999.90;;;;;;;0.33;83.03;162486.72;5040584;28;20102;-66
2021/12/04 00:30:53;;;;;;;1999.90;999.90;;;;;;;0.53;82.25;162540.03;5035802;28;20045;-66
2021/12/04 00:33:23;;;;;;;1999.90;999.90;;;;;;;0.43;82.46;162514.06;5043225;28;20395;-66
2021/12/04 00:35:58;;;;;;;1999.90;999.90;;;;;;;0.48;81.66;162527.72;5050926;28;20164;-63
2021/12/04 00:49:26;;;;;;;1999.90;999.90;;;;;;;0.41;82.51;162508.56;5034486;28;20234;-63
2021/12/04 00:51:54;;;;;;;1999.90;999.90;;;;;;;0.56;82.01;162546.88;5042873;28;20068;-64
2021/12/04 00:54:26;;;;;;;1999.90;999.90;;;;;;;0.15;83.30;162440.22;5055508;28;20044;-64
2021/12/04 00:56:53;;;;;;;;;;;;;;;0.16;83.80;162441.56;5044888;28;20048;-65
2021/12/04 00:59:20;;;;;;;1999.90;999.90;;;;;;;0.25;83.37;162464.81;5039779;28;19975;-64
2021/12/04 01:01:47;;;;;;;1999.90;999.90;;;;;;;0.20;84.65;162452.53;5051676;28;20050;-64
2021/12/04 01:04:19;;;;;;;1999.90;999.90;;;;;;;0.18;83.69;162447.06;5047800;28;20068;-64
2021/12/04 01:06:46;;;;;;;1999.90;999.90;;;;;;;-0.13;84.79;162365.03;5046565;28;20055;-66
2021/12/04 01:09:15;;;;;;;1999.90;999.90;;;;;;;-0.22;85.67;162340.44;5049577;28;20460;-65
2021/12/04 01:11:43;;;;;;;1999.90;999.90;;;;;;;0.12;84.67;162430.63;5040046;28;20042;-66
2021/12/04 01:14:13;;;;;;;1999.90;999.90;;;;;;;-0.09;85.00;162375.97;5041217;28;20041;-64
2021/12/04 01:16:39;;;;;;;1999.90;999.90;;;;;;;0.08;85.13;162421.06;5054671;28;20403;-65
2021/12/04 01:19:06;;;;;;;1999.90;999.90;;;;;;;0.02;85.10;162403.31;5051075;28;20107;-64
2021/12/04 01:21:33;;;;;;;1999.90;999.90;;;;;;;0.02;85.09;162403.31;5038851;28;20134;-65
2021/12/04 01:24:00;;;;;;;1999.90;999.90;;;;;;;-0.37;86.56;162302.16;5052374;28;20437;-64
2021/12/04 01:26:26;;;;;;;1999.90;999.90;;;;;;;-0.27;86.12;162326.72;5040136;28;20099;-65
2021/12/04 01:28:53;;;;;;;1999.90;999.90;;;;;;;-0.59;87.67;162242.03;5052600;28;20048;-64
2021/12/04 01:31:20;;;;;;;1999.90;999.90;;;;;;;-0.21;86.64;162344.53;5051885;28;20095;-64
2021/12/04 01:33:47;;;;;;;1999.90;999.90;;;;;;;-0.41;87.41;162291.19;5049663;28;20080;-65
2021/12/04 01:36:14;;;;;;;1999.90;999.90;;;;;;;-0.55;87.17;162254.31;5046903;28;20406;-65
2021/12/04 01:38:41;;;;;;;1999.90;999.90;;;;;;;-0.56;87.78;162250.22;5058766;28;20168;-65
2021/12/04 01:41:07;;;;;;;1999.90;999.90;;;;;;;-0.48;88.38;162272.06;5051109;28;20405;-65
2021/12/04 01:43:34;;;;;;;1999.90;999.90;;;;;;;-0.21;87.18;162343.13;5044795;28;20084;-64
2021/12/04 01:46:00;;;;;;;1999.90;999.90;;;;;;;-0.09;86.74;162374.56;5048203;28;20115;-65
2021/12/04 01:48:27;;;;;;;1999.90;999.90;;;;;;;0.10;85.55;162425.16;5049868;28;20239;-64
2021/12/04 01:50:55;;;;;;;1999.90;999.90;;;;;;;0.03;85.41;162406.00;5051319;28;20044;-65
2021/12/04 01:53:25;;;;;;;1999.90;999.90;;;;;;;0.08;85.35;162419.72;5051425;28;20312;-65
2021/12/04 01:55:53;;;;;;;1999.90;999.90;;;;;;;-0.09;86.60;162375.97;5046356;28;20045;-64
2021/12/04 01:58:20;;;;;;;1999.90;999.90;;;;;;;-0.26;87.27;162330.84;5046161;28;20133;-65
2021/12/04 02:00:48;;;;;;;1999.90;999.90;;;;;;;0.05;86.28;162412.88;5053782;28;20262;-65
2021/12/04 02:03:17;;;;;;;1999.90;999.90;;;;;;;-0.09;86.50;162374.56;5050763;28;20053;-64
2021/12/04 02:05:44;;;;;;;1999.90;999.90;;;;;;;0.13;86.23;162433.38;5052402;28;20049;-64
2021/12/04 02:08:29;;;;;;;1999.90;999.90;;;;;;;-0.26;87.15;162330.84;5043429;28;20045;-65
2021/12/04 02:10:58;;;;;;;1999.90;999.90;;;;;;;-0.09;86.85;162375.97;5052380;28;20366;-64
2021/12/04 02:13:25;;;;;;;1999.90;999.90;;;;;;;0.18;86.04;162447.06;5051530;28;20106;-65
2021/12/04 02:15:53;;;;;;;1999.90;999.90;;;;;;;0.04;86.06;162410.13;5046691;28;20484;-65
2021/12/04 02:18:21;;;;;;;1999.90;999.90;;;;;;;0.04;85.99;162408.78;5052903;28;20075;-65
2021/12/04 02:20:49;;;;;;;1999.90;999.90;;;;;;;0.02;86.13;162404.66;5049606;28;20059;-65
2021/12/04 02:23:16;;;;;;;1999.90;999.90;;;;;;;0.04;86.51;162410.13;5038981;28;20041;-65
2021/12/04 02:25:42;;;;;;;1999.90;999.90;;;;;;;0.29;85.59;162477.13;5041827;28;20125;-65
2021/12/04 02:28:11;;;;;;;1999.90;999.90;;;;;;;0.35;84.65;162493.53;5055871;28;20335;-66
2021/12/04 02:30:43;;;;;;;1999.90;999.90;;;;;;;0.34;85.22;162490.81;5040515;28;20045;-65
2021/12/04 02:33:13;;;;;;;1999.90;999.90;;;;;;;0.17;85.67;162444.31;5050245;28;20463;-65
2021/12/04 02:35:41;;;;;;;1999.90;999.90;;;;;;;0.21;85.26;162453.88;5048826;28;20063;-65
2021/12/04 02:38:09;;;;;;;1999.90;999.90;;;;;;;0.34;84.84;162490.81;5044939;28;20343;-65
2021/12/04 02:40:35;;;;;;;1999.90;999.90;;;;;;;0.20;85.33;162452.53;5051440;28;20409;-65
2021/12/04 02:43:03;;;;;;;1999.90;999.90;;;;;;;0.62;84.38;162564.63;5046556;28;20106;-65
2021/12/04 02:45:29;;;;;;;1999.90;999.90;;;;;;;0.34;84.82;162489.41;5048873;28;20053;-65
2021/12/04 02:47:56;;;;;;;1999.90;999.90;;;;;;;0.37;84.62;162497.63;5054546;28;20049;-65
2021/12/04 02:50:23;;;;;;;1999.90;999.90;;;;;;;0.33;85.12;162486.72;5056621;28;20052;-65
2021/12/04 02:52:49;;;;;;;1999.90;999.90;;;;;;;0.08;86.16;162419.72;5049430;28;20053;-65
2021/12/04 02:55:17;;;;;;;1999.90;999.90;;;;;;;-0.28;87.69;162325.38;5045998;28;20091;-65
2021/12/04 02:57:44;;;;;;;1999.90;999.90;;;;;;;-0.24;87.29;162336.34;5049445;28;20381;-66
2021/12/04 03:00:17;;;;;;;1999.90;999.90;;;;;;;-0.15;87.69;162359.53;5040326;28;20057;-65
2021/12/04 03:02:44;;;;;;;1999.90;999.90;;;;;;;-0.10;87.14;162373.22;5051529;28;20397;-66
2021/12/04 03:05:12;;;;;;;1999.90;999.90;;;;;;;-0.08;87.30;162378.66;5044655;28;20049;-65
2021/12/04 03:07:39;;;;;;;1999.90;999.90;;;;;;;0.11;86.39;162429.25;5046720;28;20056;-65
2021/12/04 03:10:08;;;;;;;1999.90;999.90;;;;;;;0.34;85.21;162490.81;5044733;28;20040;-65
2021/12/04 03:12:36;;;;;;;1999.90;999.90;;;;;;;0.27;86.44;162470.25;5044853;28;20098;-65
2021/12/04 03:15:04;;;;;;;1999.90;999.90;;;;;;;0.41;85.52;162507.22;5058193;28;20079;-65
2021/12/04 03:17:31;;;;;;;1999.90;999.90;;;;;;;0.44;85.15;162515.41;5043176;28;20049;-65
2021/12/04 03:19:58;;;;;;;1999.90;999.90;;;;;;;0.49;84.89;162529.06;5043301;28;20119;-66
2021/12/04 03:22:24;;;;;;;1999.90;999.90;;;;;;;0.26;85.86;162468.91;5042396;28;20085;-65
2021/12/04 03:24:52;;;;;;;1999.90;999.90;;;;;;;0.37;85.17;162497.63;5044408;28;20091;-65
2021/12/04 03:27:20;;;;;;;1999.90;999.90;;;;;;;0.37;85.00;162497.63;5041891;28;20045;-65
2021/12/04 03:29:56;;;;;;;1999.90;999.90;;;;;;;0.44;84.89;162516.78;5051007;28;20053;-65
2021/12/04 03:42:50;;;;;;;1999.90;999.90;;;;;;;0.71;83.45;162587.91;5034816;28;20389;-65
2021/12/04 03:45:16;;;;;;;1999.90;999.90;;;;;;;0.59;83.38;162556.44;5044934;28;20721;-65
2021/12/04 03:47:47;;;;;;;1999.90;999.90;;;;;;;0.63;83.58;162567.38;5056664;28;20076;-65
2021/12/04 03:50:14;;;;;;;1999.90;999.90;;;;;;;0.61;83.37;162560.53;5044446;28;20287;-65
2021/12/04 03:52:41;;;;;;;1999.90;999.90;;;;;;;0.53;83.98;162540.03;5053162;28;20119;-65
2021/12/04 03:55:09;;;;;;;1999.90;999.90;;;;;;;0.55;82.83;162545.47;5047465;28;20041;-65
2021/12/04 03:57:36;;;;;;;1999.90;999.90;;;;;;;0.58;83.35;162552.34;5037982;28;20084;-65
2021/12/04 04:00:04;;;;;;;1999.90;999.90;;;;;;;0.77;82.49;162602.94;5043704;28;20123;-65
2021/12/04 04:02:30;;;;;;;1999.90;999.90;;;;;;;0.66;82.90;162574.25;5047102;28;20106;-65
2021/12/04 04:04:57;;;;;;;1999.90;999.90;;;;;;;0.54;83.15;162542.78;5041646;28;20051;-65
2021/12/04 04:07:24;;;;;;;1999.90;999.90;;;;;;;0.56;82.61;162548.22;5032207;28;20430;-65
2021/12/04 04:09:50;;;;;;;1999.90;999.90;;;;;;;0.38;83.10;162499.03;5051575;28;20461;-65
2021/12/04 04:12:17;;;;;;;1999.90;999.90;;;;;;;0.62;82.44;162564.63;5039040;28;20084;-65
2021/12/04 04:14:43;;;;;;;1999.90;999.90;;;;;;;0.88;81.71;162633.06;5043810;28;20126;-65
2021/12/04 04:17:10;;;;;;;1999.90;999.90;;;;;;;1.07;80.61;162682.28;5050618;28;20088;-65
2021/12/04 04:19:37;;;;;;;1999.90;999.90;;;;;;;0.82;80.87;162616.59;5043417;28;20092;-65
2021/12/04 04:22:04;;;;;;;1999.90;999.90;;;;;;;1.16;80.42;162706.91;5048737;28;20099;-65
2021/12/04 04:24:32;;;;;;;1999.90;999.90;;;;;;;1.23;80.03;162726.06;5047414;28;20048;-65
2021/12/04 04:26:59;;;;;;;1999.90;999.90;;;;;;;1.42;79.69;162775.38;5044657;28;20057;-66
2021/12/04 04:29:26;;;;;;;1999.90;999.90;;;;;;;0.95;80.35;162652.19;5053081;28;20211;-65
2021/12/04 04:31:55;;;;;;;1999.90;999.90;;;;;;;1.29;79.69;162742.50;5043182;28;20103;-66
2021/12/04 04:34:30;;;;;;;1999.90;999.90;;;;;;;1.39;78.71;162769.88;5035221;28;20049;-65
2021/12/04 04:37:17;;;;;;;1999.90;999.90;;;;;;;1.65;77.81;162836.94;5042787;28;20049;-65
2021/12/04 05:12:50;;;;;;;1999.90;999.90;;;;;;;1.44;76.91;162782.19;5050107;28;20038;-65
2021/12/04 05:15:34;;;;;;;1999.90;999.90;;;;;;;1.37;77.19;162763.00;5052118;28;20063;-66
2021/12/04 05:20:36;;;;;;;1999.90;999.90;;;;;;;1.70;75.91;162852.00;5047524;28;20118;-66
2021/12/04 05:23:03;;;;;;;1999.90;999.90;;;;;;;1.51;76.53;162800.00;5047054;28;20386;-66
2021/12/04 05:25:31;;;;;;;1999.90;999.90;;;;;;;1.63;76.00;162831.47;5044281;28;20045;-65
2021/12/04 05:27:57;;;;;;;1999.90;999.90;;;;;;;1.91;75.22;162908.13;5039679;28;20153;-65
2021/12/04 05:30:24;;;;;;;1999.90;999.90;;;;;;;2.10;74.15;162957.44;5043509;28;20088;-65
2021/12/04 05:32:51;;;;;;;1999.90;999.90;;;;;;;2.07;74.34;162950.56;5036668;28;20395;-66
2021/12/04 05:35:18;;;;;;;1999.90;999.90;;;;;;;2.17;73.10;162975.22;5047017;28;20111;-66
2021/12/04 05:37:44;;;;;;;1999.90;999.90;;;;;;;1.75;74.58;162864.31;5049124;28;20207;-65
2021/12/04 05:40:13;;;;;;;1999.90;999.90;;;;;;;2.10;73.60;162958.78;5057522;28;20412;-66
2021/12/04 05:42:39;;;;;;;1999.90;999.90;;;;;;;2.01;74.15;162932.75;5044112;28;20087;-66
2021/12/04 05:45:13;;;;;;;1999.90;999.90;;;;;;;2.02;74.06;162936.84;5047365;28;20077;-66
2021/12/04 05:47:44;;;;;;;1999.90;999.90;;;;;;;2.15;73.36;162969.75;5045449;28;20048;-66
2021/12/04 05:50:23;;;;;;;1999.90;999.90;;;;;;;1.84;73.74;162887.59;5049176;28;20422;-66
2021/12/04 05:55:31;;;;;;;1999.90;999.90;;;;;;;1.83;74.37;162884.84;5046420;28;20052;-66
2021/12/04 05:57:57;;;;;;;1999.90;999.90;;;;;;;1.71;73.74;162854.75;5044754;28;20503;-66
2021/12/04 06:00:25;;;;;;;1999.90;999.90;;;;;;;1.98;73.62;162925.94;5048674;28;20449;-66
2021/12/04 06:02:57;;;;;;;1999.90;999.90;;;;;;;1.83;73.64;162884.84;5056991;28;20155;-66
2021/12/04 06:05:24;;;;;;;1999.90;999.90;;;;;;;2.14;72.65;162967.00;5053631;28;20452;-66
2021/12/04 06:07:50;;;;;;;1999.90;999.90;;;;;;;2.14;71.88;162968.34;5047772;28;20102;-66
2021/12/04 06:10:17;;;;;;;1999.90;999.90;;;;;;;1.92;72.95;162910.88;5044973;28;20399;-66
2021/12/04 06:12:43;;;;;;;1999.90;999.90;;;;;;;1.89;73.24;162901.25;5039684;28;20053;-66
2021/12/04 06:15:10;;;;;;;1999.90;999.90;;;;;;;1.65;73.67;162836.94;5046430;28;20488;-66
2021/12/04 06:17:37;;;;;;;1999.90;999.90;;;;;;;1.76;74.12;162867.06;5048690;28;20084;-66
2021/12/04 06:22:49;;;;;;;1999.90;999.90;;;;;;;1.72;74.00;162856.09;5046498;28;20045;-66
2021/12/04 06:25:27;;;;;;;1999.90;999.90;;;;;;;1.59;74.15;162821.88;5053178;28;20049;-66
2021/12/04 06:27:54;;;;;;;1999.90;999.90;;;;;;;1.40;74.27;162771.25;5039826;28;20040;-66
2021/12/04 06:30:21;;;;;;;1999.90;999.90;;;;;;;1.19;75.48;162715.13;5041209;28;20528;-66
2021/12/04 06:32:50;;;;;;;1999.90;999.90;;;;;;;0.83;76.38;162619.34;5042315;28;20041;-66
2021/12/04 06:35:18;;;;;;;1999.90;999.90;;;;;;;0.73;77.01;162593.41;5054993;28;20705;-65
2021/12/04 06:37:45;;;;;;;1999.90;999.90;;;;;;;0.61;78.00;162561.94;5041092;28;20443;-66
2021/12/04 06:40:12;;;;;;;1999.90;999.90;;;;;;;0.51;77.94;162534.59;5050529;28;20384;-65
2021/12/04 06:42:41;;;;;;;1999.90;999.90;;;;;;;0.75;77.62;162597.50;5047469;28;20345;-66
2021/12/04 06:45:10;;;;;;;1999.90;999.90;;;;;;;0.63;77.40;162567.38;5043249;28;20060;-66
2021/12/04 06:47:38;;;;;;;1999.90;999.90;;;;;;;1.15;76.46;162705.56;5052142;28;20130;-65
2021/12/04 06:50:12;;;;;;;1999.90;999.90;;;;;;;1.53;74.82;162805.44;5041367;28;20044;-65
2021/12/04 06:52:43;;;;;;;1999.90;999.90;;;;;;;1.70;74.75;162852.00;5044996;28;20045;-66
2021/12/04 06:55:10;;;;;;;1999.90;999.90;;;;;;;1.70;74.46;162850.66;5041465;28;20405;-66
2021/12/04 06:57:40;;;;;;;1999.90;999.90;;;;;;;1.60;74.50;162824.63;5055654;28;20154;-66
2021/12/04 07:00:10;;;;;;;1999.90;999.90;;;;;;;0.94;77.39;162649.47;5050980;28;20083;-66
2021/12/04 07:02:37;;;;;;;1999.90;999.90;;;;;;;1.24;76.47;162728.84;5043043;28;20437;-66
2021/12/04 07:05:04;;;;;;;1999.90;999.90;;;;;;;1.30;76.72;162745.25;5036607;28;20351;-65
2021/12/04 07:07:31;;;;;;;1999.90;999.90;;;;;;;1.01;78.01;162667.25;5038458;28;20110;-66
2021/12/04 07:09:57;;;;;;;1999.90;999.90;;;;;;;1.04;77.60;162676.84;5046955;28;20522;-66
2021/12/04 07:12:25;;;;;;;1999.90;999.90;;;;;;;1.46;77.13;162787.69;5049238;28;20382;-66
2021/12/04 07:14:52;;;;;;;1999.90;999.90;;;;;;;1.34;76.87;162756.22;5047646;28;20071;-66
2021/12/04 07:17:18;;;;;;;1999.90;999.90;;;;;;;1.38;76.81;162765.75;5039916;28;20054;-66
2021/12/04 07:19:45;;;;;;;1999.90;999.90;;;;;;;1.06;79.00;162680.94;5053443;28;20090;-66
2021/12/04 07:22:12;;;;;;;1999.90;999.90;;;;;;;1.23;78.39;162727.44;5045395;28;20440;-66
2021/12/04 07:24:39;;;;;;;1999.90;999.90;;;;;;;1.30;77.49;162745.25;5043600;28;20069;-66
2021/12/04 07:27:06;;;;;;;1999.90;999.90;;;;;;;1.58;76.80;162820.50;5049031;28;20049;-66
2021/12/04 07:29:33;;;;;;;1999.90;999.90;;;;;;;1.73;76.45;162860.22;5048470;28;20053;-66
2021/12/04 07:31:59;;;;;;;1999.90;999.90;;;;;;;1.99;75.86;162928.66;5075316;28;20175;-66
2021/12/04 07:34:26;;;;;;;1999.90;999.90;;;;;;;1.96;75.82;162919.09;5055581;28;20045;-65
2021/12/04 07:36:52;;;;;;;1999.90;999.90;;;;;;;2.13;74.96;162964.25;5046283;28;20133;-65
2021/12/04 07:39:19;;;;;;;1999.90;999.90;;;;;;;2.07;75.43;162950.56;5041133;28;20437;-66
2021/12/04 07:41:45;;;;;;;1999.90;999.90;;;;;;;1.71;76.93;162854.75;5051467;28;20594;-64
2021/12/04 07:44:12;;;;;;;1999.90;999.90;;;;;;;1.88;76.56;162899.91;5041902;28;20499;-65
2021/12/04 07:46:40;;;;;;;1999.90;999.90;;;;;;;1.60;77.15;162824.63;5034594;28;20095;-64
2021/12/04 07:49:08;;;;;;;1999.90;999.90;;;;;;;1.57;77.32;162816.41;5051290;28;20269;-64
2021/12/04 07:51:35;;;;;;;1999.90;999.90;;;;;;;1.87;76.59;162895.81;5043070;28;20048;-65
2021/12/04 07:54:02;;;;;;;1999.90;999.90;;;;;;;2.23;75.14;162991.63;5044932;28;20063;-65
2021/12/04 07:56:29;;;;;;;1999.90;999.90;;;;;;;1.75;76.52;162865.66;5042807;28;20418;-65
2021/12/04 07:58:56;;;;;;;1999.90;999.90;;;;;;;2.24;75.29;162994.38;5052463;28;20049;-65
2021/12/04 08:01:23;;;;;;;1999.90;999.90;;;;;;;2.68;74.58;163110.78;5038102;28;20049;-65
2021/12/04 08:03:50;;;;;;;1999.90;999.90;;;;;;;2.67;73.93;163109.44;5047293;28;20351;-65
2021/12/04 08:06:16;;;;;;;1999.90;999.90;;;;;;;2.87;73.20;163161.47;5054400;28;20330;-65
2021/12/04 08:08:43;;;;;;;1999.90;999.90;;;;;;;2.77;73.86;163135.44;5037323;28;20085;-65
2021/12/04 08:11:10;;;;;;;1999.90;999.90;;;;;;;2.74;73.31;163128.63;5047220;28;20056;-65
2021/12/04 08:13:36;;;;;;;1999.90;999.90;;;;;;;2.30;75.06;163010.81;5049831;28;20041;-65
2021/12/04 08:16:03;;;;;;;1999.90;999.90;;;;;;;2.22;76.27;162990.28;5045574;28;20121;-65
2021/12/04 08:18:30;;;;;;;1999.90;999.90;;;;;;;2.49;75.30;163061.50;5045065;28;20041;-65
2021/12/04 08:20:57;;;;;;;1999.90;999.90;;;;;;;2.52;75.18;163068.38;5038829;28;20107;-65
2021/12/04 08:23:23;;;;;;;1999.90;999.90;;;;;;;2.64;75.07;163102.56;5040186;28;20048;-65
2021/12/04 08:25:50;;;;;;;1999.90;999.90;;;;;;;2.59;74.89;163087.50;5035654;28;20048;-64
2021/12/04 08:28:16;;;;;;;1999.90;999.90;;;;;;;2.51;75.21;163066.97;5044924;28;20102;-65
2021/12/04 08:30:43;;;;;;;1999.90;999.90;;;;;;;1.94;77.44;162914.97;5046175;28;20370;-65
2021/12/04 08:33:11;;;;;;;1999.90;999.90;;;;;;;2.19;76.89;162980.66;5044433;28;20126;-65
2021/12/04 08:35:41;;;;;;;1999.90;999.90;;;;;;;2.46;76.21;163053.28;5056381;28;20081;-65
2021/12/04 08:38:09;;;;;;;1999.90;999.90;;;;;;;2.63;75.46;163098.47;5051657;28;20048;-65
2021/12/04 08:40:37;;;;;;;1999.90;999.90;;;;;;;2.07;77.53;162950.56;5040646;28;20435;-65
2021/12/04 08:43:04;;;;;;;1999.90;999.90;;;;;;;2.26;77.10;162999.84;5037879;28;20049;-65
2021/12/04 08:45:31;;;;;;;1999.90;999.90;;;;;;;2.60;76.38;163090.25;5045504;28;20080;-65
2021/12/04 08:47:57;;;;;;;1999.90;999.90;;;;;;;2.54;76.53;163073.81;5045580;28;20106;-65
2021/12/04 08:50:28;;;;;;;1999.90;999.90;;;;;;;2.78;75.55;163138.19;5044791;28;20052;-65
2021/12/04 08:52:56;;;;;;;1999.90;999.90;;;;;;;2.59;76.37;163087.50;5051358;28;20088;-65
2021/12/04 08:55:24;;;;;;;1999.90;999.90;;;;;;;2.92;75.37;163175.22;5038443;28;20118;-65
2021/12/04 08:57:51;;;;;;;1999.90;999.90;;;;;;;3.30;74.54;163276.56;5048020;28;20049;-65
2021/12/04 09:00:48;;;;;;;1999.90;999.90;;;;;;;3.69;73.25;163380.72;5046673;28;20150;-65
2021/12/04 09:03:19;;;;;;;1999.90;999.90;;;;;;;3.14;74.01;163235.50;5042338;28;20049;-65
2021/12/04 09:05:46;;;;;;;1999.90;999.90;;;;;;;3.73;73.10;163391.72;5043515;28;20048;-65
2021/12/04 09:08:12;;;;;;;1999.90;999.90;;;;;;;3.51;72.98;163334.16;5043291;28;20048;-65
2021/12/04 09:10:42;;;;;;;1999.90;999.90;;;;;;;3.64;72.45;163367.03;5043605;28;20084;-65
2021/12/04 09:13:10;;;;;;;1999.90;999.90;;;;;;;3.68;72.73;163378.03;5034276;28;20380;-65
2021/12/04 09:15:39;;;;;;;1999.90;999.90;;;;;;;3.28;72.63;163271.13;5043658;28;20045;-65
2021/12/04 09:18:05;;;;;;;1999.90;999.90;;;;;;;2.70;73.73;163117.66;5042226;28;20078;-66
2021/12/04 09:20:33;;;;;;;1999.90;999.90;;;;;;;2.87;73.61;163161.47;5047030;28;20057;-66
2021/12/04 09:23:02;;;;;;;1999.90;999.90;;;;;;;2.88;73.36;163165.59;5081857;28;20256;-66
2021/12/04 09:25:31;;;;;;;1999.90;999.90;;;;;;;3.08;73.38;163217.66;5041015;28;20477;-65
2021/12/04 09:28:10;;;;;;;1999.90;999.90;;;;;;;2.82;74.06;163150.50;5043377;28;20165;-65
2021/12/04 10:01:08;;;;;;;1999.90;999.90;;;;;;;3.80;71.19;163410.91;5046862;28;20045;-65
2021/12/04 10:12:16;;;;;;;1999.90;999.90;;;;;;;4.02;70.68;163468.47;5036749;28;20045;-65
2021/12/04 10:23:02;;;;;;;1999.90;999.90;;;;;;;4.54;69.02;163608.38;5041622;28;20057;-65
2021/12/04 10:33:43;;;;;;;1999.90;999.90;;;;;;;4.17;69.05;163509.63;5044416;28;20112;-65
2021/12/04 10:36:11;;;;;;;1999.90;999.90;;;;;;;3.73;70.27;163390.34;5041426;28;20049;-65
2021/12/04 10:38:44;;;;;;;1999.90;999.90;;;;;;;3.75;70.15;163397.22;5046221;28;20044;-65
2021/12/04 10:41:15;;;;;;;1999.90;999.90;;;;;;;3.87;70.08;163430.13;5050846;28;20052;-65
2021/12/04 10:43:42;;;;;;;1999.90;999.90;;;;;;;4.05;69.99;163476.75;5046217;28;20417;-65
2021/12/04 10:46:14;;;;;;;1999.90;999.90;;;;;;;4.09;69.41;163487.66;5047189;28;20719;-66
2021/12/04 10:48:51;;;;;;;1999.90;999.90;;;;;;;3.65;70.50;163369.81;5045777;28;20059;-65
2021/12/04 10:53:48;;;;;;;1999.90;999.90;;;;;;;3.46;71.06;163320.44;5043659;28;20065;-66
2021/12/04 10:56:29;;;;;;;1999.90;999.90;;;;;;;3.60;70.91;163356.06;5044118;28;20686;-66
2021/12/04 11:01:43;;;;;;;1999.90;999.90;;;;;;;4.08;70.01;163483.56;5052082;28;20115;-66
2021/12/04 11:18:55;;;;;;;1999.90;999.90;;;;;;;3.83;70.04;163419.13;5034564;28;20239;-66
2021/12/04 11:43:15;;;;;;;1999.90;999.90;;;;;;;4.13;68.64;163498.66;5041609;28;20467;-66
2021/12/04 11:48:38;;;;;;;1999.90;999.90;;;;;;;4.15;69.35;163504.13;5050797;28;20067;-66
2021/12/04 11:51:16;;;;;;;1999.90;999.90;;;;;;;4.51;67.70;163598.75;5046091;28;20125;-66
2021/12/04 11:53:44;;;;;;;1999.90;999.90;;;;;;;4.77;67.31;163668.72;5041315;28;20102;-66
2021/12/04 11:56:27;;;;;;;1999.90;999.90;;;;;;;4.43;67.07;163576.84;5038253;28;20045;-66
2021/12/04 11:58:55;;;;;;;1999.90;999.90;;;;;;;4.43;67.35;163576.84;5054446;28;20055;-65
2021/12/04 12:01:42;;;;;;;1999.90;999.90;;;;;;;4.80;66.14;163675.59;5047613;28;20059;-65
2021/12/04 12:04:11;;;;;;;1999.90;999.90;;;;;;;4.39;66.79;163567.22;5038653;28;20752;-65
2021/12/04 12:06:41;;;;;;;1999.90;999.90;;;;;;;4.48;66.41;163591.94;5041924;28;20052;-66
2021/12/04 12:09:15;;;;;;;1999.90;999.90;;;;;;;4.35;66.29;163556.28;5036982;28;20516;-66
2021/12/04 12:12:11;;;;;;;1999.90;999.90;;;;;;;4.67;65.78;163642.66;5042902;28;20041;-65
2021/12/04 12:14:47;;;;;;;1999.90;999.90;;;;;;;4.74;65.07;163660.50;5041709;28;20320;-66
2021/12/04 12:17:16;;;;;;;1999.90;999.90;;;;;;;3.96;66.72;163453.44;5051504;28;20353;-65
2021/12/04 12:19:52;;;;;;;1999.90;999.90;;;;;;;4.01;66.51;163465.75;5040214;28;20282;-66
2021/12/04 12:22:50;;;;;;;1999.90;999.90;;;;;;;4.34;66.51;163554.88;5039459;28;20092;-65
2021/12/04 12:36:02;;;;;;;1999.90;999.90;;;;;;;3.61;67.59;163360.19;5051866;28;20041;-64
2021/12/04 12:37:27;;;;;;;1999.90;999.90;;;;;;;4.01;66.22;163465.75;5037808;28;20103;-64
2021/12/04 12:40:06;;;;;;;1999.90;999.90;;;;;;;4.43;65.59;163576.84;5044345;28;20084;-64
2021/12/04 12:42:36;;;;;;;1999.90;999.90;;;;;;;4.01;65.58;163467.13;5039221;28;20499;-64
2021/12/04 12:45:34;;;;;;;1999.90;999.90;;;;;;;4.03;66.22;163472.63;5034892;28;20049;-64
2021/12/04 12:48:10;;;;;;;1999.90;999.90;;;;;;;4.14;65.06;163500.00;5038944;28;20101;-64
2021/12/04 12:50:42;;;;;;;1999.90;999.90;;;;;;;4.27;65.82;163534.31;5038631;28;20041;-64
2021/12/04 12:53:28;;;;;;;1999.90;999.90;;;;;;;4.36;64.81;163558.97;5041763;28;20239;-64
2021/12/04 12:56:07;;;;;;;1999.90;999.90;;;;;;;4.36;64.26;163558.97;5049465;28;20053;-64
2021/12/04 12:58:42;;;;;;;1999.90;999.90;;;;;;;4.25;64.42;163528.84;5042058;28;20076;-64
2021/12/04 13:12:47;;;;;;;1999.90;999.90;;;;;;;2.78;75.30;163139.59;5038966;28;20077;-64
2021/12/04 13:15:35;;;;;;;1999.90;999.90;;;;;;;3.50;74.10;163331.41;5049102;28;20041;-64
2021/12/04 13:18:23;;;;;;;1999.90;999.90;;;;;;;3.87;72.08;163430.13;5043782;28;20041;-64
2021/12/04 13:20:53;;;;;;;1999.90;999.90;;;;;;;3.65;71.92;163371.16;5041364;28;20053;-64
2021/12/04 13:23:24;;;;;;;1999.90;999.90;;;;;;;3.40;72.35;163304.00;5056466;28;20123;-64
2021/12/04 13:26:18;;;;;;;1999.90;999.90;;;;;;;3.78;70.92;163404.03;5041684;28;20314;-64
2021/12/04 13:28:49;;;;;;;1999.90;999.90;;;;;;;3.90;69.32;163435.56;5044454;28;20076;-64
2021/12/04 13:31:18;;;;;;;1999.90;999.90;;;;;;;3.45;69.82;163316.31;5043673;28;20053;-64
2021/12/04 13:33:49;;;;;;;1999.90;999.90;;;;;;;3.71;68.52;163386.25;5076029;28;20045;-64
2021/12/04 13:36:24;;;;;;;1999.90;999.90;;;;;;;3.34;68.46;163288.91;5047015;28;20396;-65
2021/12/04 13:38:55;;;;;;;1999.90;999.90;;;;;;;3.42;68.15;163309.47;5043610;28;20387;-64
2021/12/04 13:41:22;;;;;;;1999.90;999.90;;;;;;;3.49;68.76;163327.31;5047511;28;20327;-64
2021/12/04 13:43:53;;;;;;;1999.90;999.90;;;;;;;3.89;67.30;163434.22;5047491;28;20053;-64
2021/12/04 13:46:20;;;;;;;1999.90;999.90;;;;;;;3.77;67.34;163401.34;5041440;28;20083;-65
2021/12/04 13:48:47;;;;;;;1999.90;999.90;;;;;;;3.94;66.77;163446.56;5043814;28;20055;-65
2021/12/04 13:51:14;;;;;;;1999.90;999.90;;;;;;;4.31;65.28;163546.66;5051774;28;20099;-64
2021/12/04 13:53:44;;;;;;;1999.90;999.90;;;;;;;4.16;65.23;163506.88;5042217;28;20433;-65
2021/12/04 13:56:14;;;;;;;1999.90;999.90;;;;;;;3.95;65.88;163450.66;5045445;28;20073;-65
2021/12/04 13:58:52;;;;;;;1999.90;999.90;;;;;;;3.65;68.25;163369.81;5056494;28;20052;-64
2021/12/04 14:01:19;;;;;;;1999.90;999.90;;;;;;;3.70;67.05;163384.84;5040282;28;20053;-64
2021/12/04 14:03:47;;;;;;;1999.90;999.90;;;;;;;3.56;66.46;163345.09;5048709;28;20109;-64
2021/12/04 14:06:18;;;;;;;1999.90;999.90;;;;;;;3.80;66.37;163410.91;5040068;28;20048;-64
2021/12/04 14:09:03;;;;;;;1999.90;999.90;;;;;;;3.53;66.69;163339.63;5053084;28;20102;-65